sensor_id;sensor_type;location;lat;lon;timestamp;pressure;altitude;pressure_sealevel;temperature;humidity
8398;BME280;4236;54.504;9.588;2023-02-15T00:01:40;103017.34;;;0.29;100.00
8398;BME280;4236;54.504;9.588;2023-02-15T00:04:09;103016.50;;;0.29;100.00
8398;BME280;4236;54.504;9.588;2023-02-15T00:06:37;103018.25;;;0.28;100.00
8398;BME280;4236;54.504;9.588;2023-02-15T00:09:06;103006.69;;;0.32;100.00
8398;BME280;4236;54.504;9.588;2023-02-15T00:11:33;103004.84;;;0.34;100.00
8398;BME280;4236;54.504;9.588;2023-02-15T00:14:11;103000.44;;;0.35;100.00
8398;BME280;4236;54.504;9.588;2023-02-15T00:16:40;103002.75;;;0.41;100.00
8398;BME280;4236;54.504;9.588;2023-02-15T00:19:08;102997.06;;;0.50;100.00
8398;BME280;4236;54.504;9.588;2023-02-15T00:21:37;102990.66;;;0.55;100.00
8398;BME280;4236;54.504;9.588;2023-02-15T00:24:08;102992.97;;;0.62;100.00
8398;BME280;4236;54.504;9.588;2023-02-15T00:26:38;102998.66;;;0.70;100.00
8398;BME280;4236;54.504;9.588;2023-02-15T00:29:06;102980.97;;;0.73;100.00
8398;BME280;4236;54.504;9.588;2023-02-15T00:31:34;102982.53;;;0.77;100.00
8398;BME280;4236;54.504;9.588;2023-02-15T00:34:04;102980.66;;;0.79;100.00
8398;BME280;4236;54.504;9.588;2023-02-15T00:36:32;102979.75;;;0.80;100.00
8398;BME280;4236;54.504;9.588;2023-02-15T00:39:00;102981.53;;;0.80;100.00
8398;BME280;4236;54.504;9.588;2023-02-15T00:41:29;102975.47;;;0.78;100.00
8398;BME280;4236;54.504;9.588;2023-02-15T00:43:57;102974.88;;;0.73;100.00
8398;BME280;4236;54.504;9.588;2023-02-15T00:46:25;102969.88;;;0.68;100.00
8398;BME280;4236;54.504;9.588;2023-02-15T00:48:53;102976.97;;;0.66;100.00
8398;BME280;4236;54.504;9.588;2023-02-15T00:51:21;102986.69;;;0.64;100.00
8398;BME280;4236;54.504;9.588;2023-02-15T00:53:49;102979.91;;;0.60;100.00
8398;BME280;4236;54.504;9.588;2023-02-15T00:56:16;102970.41;;;0.57;100.00
8398;BME280;4236;54.504;9.588;2023-02-15T00:58:46;102974.03;;;0.55;100.00
8398;BME280;4236;54.504;9.588;2023-02-15T01:01:15;102976.97;;;0.49;100.00
8398;BME280;4236;54.504;9.588;2023-02-15T01:03:44;102973.75;;;0.44;100.00
8398;BME280;4236;54.504;9.588;2023-02-15T01:06:13;102962.94;;;0.33;100.00
8398;BME280;4236;54.504;9.588;2023-02-15T01:08:42;102967.63;;;0.26;100.00
8398;BME280;4236;54.504;9.588;2023-02-15T01:11:13;102958.97;;;0.24;100.00
8398;BME280;4236;54.504;9.588;2023-02-15T01:13:41;102961.06;;;0.18;100.00
8398;BME280;4236;54.504;9.588;2023-02-15T01:16:10;102958.66;;;0.13;100.00
8398;BME280;4236;54.504;9.588;2023-02-15T01:18:38;102956.28;;;0.09;100.00
8398;BME280;4236;54.504;9.588;2023-02-15T01:21:10;102958.50;;;-0.01;100.00
8398;BME280;4236;54.504;9.588;2023-02-15T01:23:40;102953.41;;;-0.04;100.00
8398;BME280;4236;54.504;9.588;2023-02-15T01:26:09;102962.28;;;-0.07;100.00
8398;BME280;4236;54.504;9.588;2023-02-15T01:28:37;102960.50;;;-0.06;100.00
8398;BME280;4236;54.504;9.588;2023-02-15T01:31:06;102960.50;;;-0.06;100.00
8398;BME280;4236;54.504;9.588;2023-02-15T01:33:35;102955.31;;;-0.08;100.00
8398;BME280;4236;54.504;9.588;2023-02-15T01:36:04;102957.31;;;-0.13;100.00
8398;BME280;4236;54.504;9.588;2023-02-15T01:38:32;102957.53;;;-0.17;100.00
8398;BME280;4236;54.504;9.588;2023-02-15T01:41:01;102956.97;;;-0.24;100.00
8398;BME280;4236;54.504;9.588;2023-02-15T01:43:45;102957.25;;;-0.30;100.00
8398;BME280;4236;54.504;9.588;2023-02-15T01:46:15;102946.00;;;-0.32;100.00
8398;BME280;4236;54.504;9.588;2023-02-15T01:48:48;102940.75;;;-0.32;100.00
8398;BME280;4236;54.504;9.588;2023-02-15T01:51:19;102935.59;;;-0.33;100.00
8398;BME280;4236;54.504;9.588;2023-02-15T01:53:52;102929.66;;;-0.37;100.00
8398;BME280;4236;54.504;9.588;2023-02-15T01:56:23;102920.16;;;-0.39;100.00
8398;BME280;4236;54.504;9.588;2023-02-15T01:58:53;102921.16;;;-0.42;100.00
8398;BME280;4236;54.504;9.588;2023-02-15T02:01:25;102925.69;;;-0.45;100.00
8398;BME280;4236;54.504;9.588;2023-02-15T02:03:59;102920.59;;;-0.48;100.00
8398;BME280;4236;54.504;9.588;2023-02-15T02:06:28;102922.38;;;-0.49;100.00
8398;BME280;4236;54.504;9.588;2023-02-15T02:08:56;102910.13;;;-0.48;100.00
8398;BME280;4236;54.504;9.588;2023-02-15T02:11:24;102909.97;;;-0.45;100.00
8398;BME280;4236;54.504;9.588;2023-02-15T02:13:53;102909.72;;;-0.41;100.00
8398;BME280;4236;54.504;9.588;2023-02-15T02:16:25;102906.97;;;-0.38;100.00
8398;BME280;4236;54.504;9.588;2023-02-15T02:19:11;102902.28;;;-0.31;100.00
8398;BME280;4236;54.504;9.588;2023-02-15T02:22:04;102896.75;;;-0.25;100.00
8398;BME280;4236;54.504;9.588;2023-02-15T02:24:56;102891.19;;;-0.19;100.00
8398;BME280;4236;54.504;9.588;2023-02-15T02:27:33;102887.66;;;-0.18;100.00
8398;BME280;4236;54.504;9.588;2023-02-15T02:30:25;102885.66;;;-0.13;100.00
8398;BME280;4236;54.504;9.588;2023-02-15T02:33:17;102883.66;;;-0.08;100.00
8398;BME280;4236;54.504;9.588;2023-02-15T02:35:53;102885.34;;;-0.07;100.00
8398;BME280;4236;54.504;9.588;2023-02-15T02:38:28;102885.19;;;-0.04;100.00
8398;BME280;4236;54.504;9.588;2023-02-15T02:41:08;102886.66;;;0.02;100.00
8398;BME280;4236;54.504;9.588;2023-02-15T02:43:44;102872.69;;;0.01;100.00
8398;BME280;4236;54.504;9.588;2023-02-15T02:46:17;102873.47;;;0.03;100.00
8398;BME280;4236;54.504;9.588;2023-02-15T02:48:49;102867.16;;;0.07;100.00
8398;BME280;4236;54.504;9.588;2023-02-15T02:51:17;102862.75;;;0.08;100.00
8398;BME280;4236;54.504;9.588;2023-02-15T02:53:51;102861.84;;;0.09;100.00
8398;BME280;4236;54.504;9.588;2023-02-15T02:56:26;102857.34;;;0.11;100.00
8398;BME280;4236;54.504;9.588;2023-02-15T02:58:57;102857.25;;;0.12;100.00
8398;BME280;4236;54.504;9.588;2023-02-15T03:01:31;102841.44;;;0.14;100.00
8398;BME280;4236;54.504;9.588;2023-02-15T03:04:05;102844.84;;;0.16;100.00
8398;BME280;4236;54.504;9.588;2023-02-15T03:06:40;102853.41;;;0.19;100.00
8398;BME280;4236;54.504;9.588;2023-02-15T03:09:15;102843.66;;;0.21;100.00
8398;BME280;4236;54.504;9.588;2023-02-15T03:11:45;102838.41;;;0.21;100.00
8398;BME280;4236;54.504;9.588;2023-02-15T03:14:14;102838.25;;;0.24;100.00
8398;BME280;4236;54.504;9.588;2023-02-15T03:16:46;102843.34;;;0.27;100.00
8398;BME280;4236;54.504;9.588;2023-02-15T03:19:19;102834.50;;;0.30;100.00
8398;BME280;4236;54.504;9.588;2023-02-15T03:21:51;102834.25;;;0.34;100.00
8398;BME280;4236;54.504;9.588;2023-02-15T03:24:32;102830.72;;;0.35;100.00
8398;BME280;4236;54.504;9.588;2023-02-15T03:27:04;102834.84;;;0.39;100.00
8398;BME280;4236;54.504;9.588;2023-02-15T03:29:34;102822.41;;;0.43;100.00
8398;BME280;4236;54.504;9.588;2023-02-15T03:32:05;102817.25;;;0.41;100.00
8398;BME280;4236;54.504;9.588;2023-02-15T03:34:35;102809.47;;;0.40;100.00
8398;BME280;4236;54.504;9.588;2023-02-15T03:37:10;102826.31;;;0.36;100.00
8398;BME280;4236;54.504;9.588;2023-02-15T03:39:42;102817.34;;;0.40;100.00
8398;BME280;4236;54.504;9.588;2023-02-15T03:42:14;102810.22;;;0.42;100.00
8398;BME280;4236;54.504;9.588;2023-02-15T03:44:50;102810.16;;;0.43;100.00
8398;BME280;4236;54.504;9.588;2023-02-15T03:47:20;102811.06;;;0.42;100.00
8398;BME280;4236;54.504;9.588;2023-02-15T03:49:54;102812.78;;;0.43;100.00
8398;BME280;4236;54.504;9.588;2023-02-15T03:52:25;102812.50;;;0.48;100.00
8398;BME280;4236;54.504;9.588;2023-02-15T03:54:52;102807.34;;;0.46;100.00
8398;BME280;4236;54.504;9.588;2023-02-15T03:57:23;102805.59;;;0.47;100.00
8398;BME280;4236;54.504;9.588;2023-02-15T04:00:14;102790.69;;;0.47;100.00
8398;BME280;4236;54.504;9.588;2023-02-15T04:03:21;102796.00;;;0.46;100.00
8398;BME280;4236;54.504;9.588;2023-02-15T04:05:51;102795.16;;;0.45;100.00
8398;BME280;4236;54.504;9.588;2023-02-15T04:08:18;102796.94;;;0.45;100.00
8398;BME280;4236;54.504;9.588;2023-02-15T04:10:46;102803.97;;;0.44;100.00
8398;BME280;4236;54.504;9.588;2023-02-15T04:13:19;102805.59;;;0.47;100.00
8398;BME280;4236;54.504;9.588;2023-02-15T04:15:46;102805.50;;;0.48;100.00
8398;BME280;4236;54.504;9.588;2023-02-15T04:18:34;102798.41;;;0.50;100.00
8398;BME280;4236;54.504;9.588;2023-02-15T04:21:22;102799.91;;;0.54;100.00
8398;BME280;4236;54.504;9.588;2023-02-15T04:24:08;102799.91;;;0.54;100.00
8398;BME280;4236;54.504;9.588;2023-02-15T04:26:54;102800.88;;;0.53;100.00
8398;BME280;4236;54.504;9.588;2023-02-15T04:29:23;102805.09;;;0.56;100.00
8398;BME280;4236;54.504;9.588;2023-02-15T04:31:52;102795.34;;;0.58;100.00
8398;BME280;4236;54.504;9.588;2023-02-15T04:34:20;102797.75;;;0.63;100.00
8398;BME280;4236;54.504;9.588;2023-02-15T04:36:49;102795.78;;;0.66;100.00
8398;BME280;4236;54.504;9.588;2023-02-15T04:39:18;102797.41;;;0.69;100.00
8398;BME280;4236;54.504;9.588;2023-02-15T04:41:46;102801.66;;;0.71;100.00
8398;BME280;4236;54.504;9.588;2023-02-15T04:44:14;102787.56;;;0.72;100.00
8398;BME280;4236;54.504;9.588;2023-02-15T04:46:42;102796.13;;;0.76;100.00
8398;BME280;4236;54.504;9.588;2023-02-15T04:49:10;102799.63;;;0.76;100.00
8398;BME280;4236;54.504;9.588;2023-02-15T04:51:37;102793.50;;;0.76;100.00
8398;BME280;4236;54.504;9.588;2023-02-15T04:54:06;102790.97;;;0.74;100.00
8398;BME280;4236;54.504;9.588;2023-02-15T04:56:34;102780.47;;;0.74;100.00
8398;BME280;4236;54.504;9.588;2023-02-15T04:59:04;102784.03;;;0.73;100.00
8398;BME280;4236;54.504;9.588;2023-02-15T05:01:31;102779.63;;;0.74;100.00
8398;BME280;4236;54.504;9.588;2023-02-15T05:03:59;102784.03;;;0.73;100.00
8398;BME280;4236;54.504;9.588;2023-02-15T05:06:26;102785.91;;;0.71;100.00
8398;BME280;4236;54.504;9.588;2023-02-15T05:08:55;102775.56;;;0.68;100.00
8398;BME280;4236;54.504;9.588;2023-02-15T05:11:26;102778.25;;;0.67;100.00
8398;BME280;4236;54.504;9.588;2023-02-15T05:13:54;102780.03;;;0.66;100.00
8398;BME280;4236;54.504;9.588;2023-02-15T05:16:22;102771.41;;;0.64;100.00
8398;BME280;4236;54.504;9.588;2023-02-15T05:18:49;102774.88;;;0.65;100.00
8398;BME280;4236;54.504;9.588;2023-02-15T05:21:17;102771.50;;;0.63;100.00
8398;BME280;4236;54.504;9.588;2023-02-15T05:23:45;102765.38;;;0.62;100.00
8398;BME280;4236;54.504;9.588;2023-02-15T05:26:17;102775.78;;;0.64;100.00
8398;BME280;4236;54.504;9.588;2023-02-15T05:29:04;102772.41;;;0.62;100.00
8398;BME280;4236;54.504;9.588;2023-02-15T05:31:32;102775.91;;;0.62;100.00
8398;BME280;4236;54.504;9.588;2023-02-15T05:34:01;102774.28;;;0.60;100.00
8398;BME280;4236;54.504;9.588;2023-02-15T05:36:29;102773.50;;;0.57;100.00
8398;BME280;4236;54.504;9.588;2023-02-15T05:38:56;102770.34;;;0.51;100.00
8398;BME280;4236;54.504;9.588;2023-02-15T05:41:24;102762.47;;;0.51;100.00
8398;BME280;4236;54.504;9.588;2023-02-15T05:43:54;102763.16;;;0.54;100.00
8398;BME280;4236;54.504;9.588;2023-02-15T05:46:23;102764.69;;;0.59;100.00
8398;BME280;4236;54.504;9.588;2023-02-15T05:48:51;102768.25;;;0.57;100.00
8398;BME280;4236;54.504;9.588;2023-02-15T05:51:19;102765.56;;;0.59;100.00
8398;BME280;4236;54.504;9.588;2023-02-15T05:53:46;102767.41;;;0.57;100.00
8398;BME280;4236;54.504;9.588;2023-02-15T05:56:14;102756.72;;;0.60;100.00
8398;BME280;4236;54.504;9.588;2023-02-15T05:58:42;102759.34;;;0.60;100.00
8398;BME280;4236;54.504;9.588;2023-02-15T06:01:11;102762.75;;;0.62;100.00
8398;BME280;4236;54.504;9.588;2023-02-15T06:03:40;102757.41;;;0.64;100.00
8398;BME280;4236;54.504;9.588;2023-02-15T06:06:08;102758.28;;;0.64;100.00
8398;BME280;4236;54.504;9.588;2023-02-15T06:08:37;102758.38;;;0.63;100.00
8398;BME280;4236;54.504;9.588;2023-02-15T06:11:05;102759.88;;;0.67;100.00
8398;BME280;4236;54.504;9.588;2023-02-15T06:13:35;102757.06;;;0.70;100.00
8398;BME280;4236;54.504;9.588;2023-02-15T06:16:04;102744.91;;;0.69;100.00
8398;BME280;4236;54.504;9.588;2023-02-15T06:18:32;102737.94;;;0.68;100.00
8398;BME280;4236;54.504;9.588;2023-02-15T06:21:02;102750.91;;;0.71;100.00
8398;BME280;4236;54.504;9.588;2023-02-15T06:23:30;102742.09;;;0.72;100.00
8398;BME280;4236;54.504;9.588;2023-02-15T06:25:57;102743.88;;;0.71;100.00
8398;BME280;4236;54.504;9.588;2023-02-15T06:28:25;102742.94;;;0.72;100.00
8398;BME280;4236;54.504;9.588;2023-02-15T06:30:53;102752.63;;;0.72;100.00
8398;BME280;4236;54.504;9.588;2023-02-15T06:33:21;102742.94;;;0.72;100.00
8398;BME280;4236;54.504;9.588;2023-02-15T06:35:49;102736.84;;;0.72;100.00
8398;BME280;4236;54.504;9.588;2023-02-15T06:38:18;102735.06;;;0.72;100.00
8398;BME280;4236;54.504;9.588;2023-02-15T06:40:46;102732.53;;;0.71;100.00
8398;BME280;4236;54.504;9.588;2023-02-15T06:43:13;102733.28;;;0.73;100.00
8398;BME280;4236;54.504;9.588;2023-02-15T06:45:41;102736.06;;;0.70;100.00
8398;BME280;4236;54.504;9.588;2023-02-15T06:48:09;102729.81;;;0.72;100.00
8398;BME280;4236;54.504;9.588;2023-02-15T06:50:37;102726.34;;;0.72;100.00
8398;BME280;4236;54.504;9.588;2023-02-15T06:53:05;102727.09;;;0.74;100.00
8398;BME280;4236;54.504;9.588;2023-02-15T06:55:34;102725.41;;;0.73;100.00
8398;BME280;4236;54.504;9.588;2023-02-15T06:58:01;102732.34;;;0.74;100.00
8398;BME280;4236;54.504;9.588;2023-02-15T07:00:29;102718.28;;;0.75;100.00
8398;BME280;4236;54.504;9.588;2023-02-15T07:02:58;102722.59;;;0.76;100.00
8398;BME280;4236;54.504;9.588;2023-02-15T07:05:26;102729.38;;;0.80;100.00
8398;BME280;4236;54.504;9.588;2023-02-15T07:07:57;102725.91;;;0.79;100.00
8398;BME280;4236;54.504;9.588;2023-02-15T07:10:25;102724.13;;;0.80;100.00
8398;BME280;4236;54.504;9.588;2023-02-15T07:12:54;102724.03;;;0.81;100.00
8398;BME280;4236;54.504;9.588;2023-02-15T07:15:21;102718.63;;;0.84;100.00
8398;BME280;4236;54.504;9.588;2023-02-15T07:17:49;102724.91;;;0.82;100.00
8398;BME280;4236;54.504;9.588;2023-02-15T07:20:18;102724.72;;;0.85;100.00
8398;BME280;4236;54.504;9.588;2023-02-15T07:22:47;102715.91;;;0.86;100.00
8398;BME280;4236;54.504;9.588;2023-02-15T07:25:15;102719.13;;;0.91;100.00
8398;BME280;4236;54.504;9.588;2023-02-15T07:27:43;102715.41;;;0.95;100.00
8398;BME280;4236;54.504;9.588;2023-02-15T07:30:14;102708.09;;;1.00;100.00
8398;BME280;4236;54.504;9.588;2023-02-15T07:32:43;102719.19;;;1.05;100.00
8398;BME280;4236;54.504;9.588;2023-02-15T07:35:31;102708.31;;;1.11;100.00
8398;BME280;4236;54.504;9.588;2023-02-15T07:37:59;102707.28;;;1.13;100.00
8398;BME280;4236;54.504;9.588;2023-02-15T07:40:26;102700.09;;;1.17;100.00
8398;BME280;4236;54.504;9.588;2023-02-15T07:42:57;102691.19;;;1.20;100.00
8398;BME280;4236;54.504;9.588;2023-02-15T07:45:27;102697.09;;;1.23;100.00
8398;BME280;4236;54.504;9.588;2023-02-15T07:47:54;102691.84;;;1.23;100.00
8398;BME280;4236;54.504;9.588;2023-02-15T07:50:22;102684.66;;;1.27;100.00
8398;BME280;4236;54.504;9.588;2023-02-15T07:52:50;102687.94;;;1.30;100.00
8398;BME280;4236;54.504;9.588;2023-02-15T07:55:17;102685.22;;;1.32;100.00
8398;BME280;4236;54.504;9.588;2023-02-15T07:57:47;102690.97;;;1.38;100.00
8398;BME280;4236;54.504;9.588;2023-02-15T08:00:16;102685.91;;;1.49;100.00
8398;BME280;4236;54.504;9.588;2023-02-15T08:02:48;102676.16;;;1.51;100.00
8398;BME280;4236;54.504;9.588;2023-02-15T08:05:36;102680.22;;;1.57;100.00
8398;BME280;4236;54.504;9.588;2023-02-15T08:08:04;102675.25;;;1.66;100.00
8398;BME280;4236;54.504;9.588;2023-02-15T08:10:32;102675.44;;;1.78;100.00
8398;BME280;4236;54.504;9.588;2023-02-15T08:13:17;102682.03;;;1.85;100.00
8398;BME280;4236;54.504;9.588;2023-02-15T08:15:48;102676.94;;;1.96;100.00
8398;BME280;4236;54.504;9.588;2023-02-15T08:18:17;102673.84;;;2.03;100.00
8398;BME280;4236;54.504;9.588;2023-02-15T08:20:48;102669.81;;;2.12;100.00
8398;BME280;4236;54.504;9.588;2023-02-15T08:23:16;102671.41;;;2.14;100.00
8398;BME280;4236;54.504;9.588;2023-02-15T08:25:44;102666.63;;;2.21;100.00
8398;BME280;4236;54.504;9.588;2023-02-15T08:28:12;102660.66;;;2.32;100.00
8398;BME280;4236;54.504;9.588;2023-02-15T08:30:40;102662.38;;;2.33;100.00
8398;BME280;4236;54.504;9.588;2023-02-15T08:33:07;102656.13;;;2.34;100.00
8398;BME280;4236;54.504;9.588;2023-02-15T08:35:37;102647.38;;;2.33;100.00
8398;BME280;4236;54.504;9.588;2023-02-15T08:38:05;102650.13;;;2.32;100.00
8398;BME280;4236;54.504;9.588;2023-02-15T08:40:32;102652.03;;;2.30;100.00
8398;BME280;4236;54.504;9.588;2023-02-15T08:43:01;102649.28;;;2.31;100.00
8398;BME280;4236;54.504;9.588;2023-02-15T08:45:28;102645.91;;;2.29;100.00
8398;BME280;4236;54.504;9.588;2023-02-15T08:47:56;102648.75;;;2.26;100.00
8398;BME280;4236;54.504;9.588;2023-02-15T08:50:24;102646.75;;;2.30;100.00
8398;BME280;4236;54.504;9.588;2023-02-15T08:52:53;102642.13;;;2.33;100.00
8398;BME280;4236;54.504;9.588;2023-02-15T08:55:22;102648.53;;;2.29;100.00
8398;BME280;4236;54.504;9.588;2023-02-15T08:57:50;102651.19;;;2.29;100.00
8398;BME280;4236;54.504;9.588;2023-02-15T09:00:19;102646.56;;;2.33;100.00
8398;BME280;4236;54.504;9.588;2023-02-15T09:02:48;102647.19;;;2.36;100.00
8398;BME280;4236;54.504;9.588;2023-02-15T09:05:16;102649.44;;;2.42;100.00
8398;BME280;4236;54.504;9.588;2023-02-15T09:07:44;102642.97;;;2.48;100.00
8398;BME280;4236;54.504;9.588;2023-02-15T09:10:13;102644.03;;;2.58;100.00
8398;BME280;4236;54.504;9.588;2023-02-15T09:12:41;102641.94;;;2.63;100.00
8398;BME280;4236;54.504;9.588;2023-02-15T09:15:08;102649.44;;;2.69;100.00
8398;BME280;4236;54.504;9.588;2023-02-15T09:17:37;102643.97;;;2.72;100.00
8398;BME280;4236;54.504;9.588;2023-02-15T09:20:05;102634.63;;;2.68;100.00
8398;BME280;4236;54.504;9.588;2023-02-15T09:22:33;102640.75;;;2.81;100.00
8398;BME280;4236;54.504;9.588;2023-02-15T09:25:01;102640.47;;;2.86;100.00
8398;BME280;4236;54.504;9.588;2023-02-15T09:27:30;102642.69;;;2.92;100.00
8398;BME280;4236;54.504;9.588;2023-02-15T09:29:58;102645.66;;;3.00;100.00
8398;BME280;4236;54.504;9.588;2023-02-15T09:32:25;102649.47;;;3.08;100.00
8398;BME280;4236;54.504;9.588;2023-02-15T09:34:53;102647.28;;;3.15;100.00
8398;BME280;4236;54.504;9.588;2023-02-15T09:37:21;102647.81;;;3.07;100.00
8398;BME280;4236;54.504;9.588;2023-02-15T09:39:48;102644.84;;;3.12;100.00
8398;BME280;4236;54.504;9.588;2023-02-15T09:42:35;102636.44;;;3.19;100.00
8398;BME280;4236;54.504;9.588;2023-02-15T09:45:25;102638.88;;;3.35;100.00
8398;BME280;4236;54.504;9.588;2023-02-15T09:48:22;102637.63;;;3.41;100.00
8398;BME280;4236;54.504;9.588;2023-02-15T09:51:06;102641.03;;;3.55;100.00
8398;BME280;4236;54.504;9.588;2023-02-15T09:53:53;102641.00;;;3.68;100.00
8398;BME280;4236;54.504;9.588;2023-02-15T09:56:29;102641.94;;;3.79;100.00
8398;BME280;4236;54.504;9.588;2023-02-15T09:59:11;102638.69;;;3.76;100.00
8398;BME280;4236;54.504;9.588;2023-02-15T10:01:51;102642.38;;;3.86;100.00
8398;BME280;4236;54.504;9.588;2023-02-15T10:04:39;102634.16;;;3.90;100.00
8398;BME280;4236;54.504;9.588;2023-02-15T10:07:20;102626.22;;;3.90;100.00
8398;BME280;4236;54.504;9.588;2023-02-15T10:10:00;102623.59;;;3.90;100.00
8398;BME280;4236;54.504;9.588;2023-02-15T10:12:39;102625.03;;;4.07;100.00
8398;BME280;4236;54.504;9.588;2023-02-15T10:15:25;102621.00;;;4.14;100.00
8398;BME280;4236;54.504;9.588;2023-02-15T10:18:05;102624.44;;;4.27;100.00
8398;BME280;4236;54.504;9.588;2023-02-15T10:20:43;102625.47;;;4.37;100.00
8398;BME280;4236;54.504;9.588;2023-02-15T10:23:29;102619.97;;;4.40;100.00
8398;BME280;4236;54.504;9.588;2023-02-15T10:26:04;102621.03;;;4.38;100.00
8398;BME280;4236;54.504;9.588;2023-02-15T10:28:42;102621.25;;;4.35;100.00
8398;BME280;4236;54.504;9.588;2023-02-15T10:31:26;102614.28;;;4.34;100.00
8398;BME280;4236;54.504;9.588;2023-02-15T10:34:14;102619.97;;;4.40;100.00
8398;BME280;4236;54.504;9.588;2023-02-15T10:36:59;102612.16;;;4.39;100.00
8398;BME280;4236;54.504;9.588;2023-02-15T10:39:40;102607.16;;;4.47;100.00
8398;BME280;4236;54.504;9.588;2023-02-15T10:42:17;102610.22;;;4.54;100.00
8398;BME280;4236;54.504;9.588;2023-02-15T10:45:04;102608.25;;;4.68;100.00
8398;BME280;4236;54.504;9.588;2023-02-15T10:47:50;102614.97;;;4.72;100.00
8398;BME280;4236;54.504;9.588;2023-02-15T10:50:31;102612.63;;;4.80;100.00
8398;BME280;4236;54.504;9.588;2023-02-15T10:53:26;102607.59;;;4.88;100.00
8398;BME280;4236;54.504;9.588;2023-02-15T10:56:01;102600.50;;;4.89;100.00
8398;BME280;4236;54.504;9.588;2023-02-15T10:58:44;102604.38;;;4.96;100.00
8398;BME280;4236;54.504;9.588;2023-02-15T11:01:18;102604.13;;;4.99;100.00
8398;BME280;4236;54.504;9.588;2023-02-15T11:04:08;102604.81;;;5.14;100.00
8398;BME280;4236;54.504;9.588;2023-02-15T11:06:39;102602.16;;;5.14;100.00
8398;BME280;4236;54.504;9.588;2023-02-15T11:09:14;102603.84;;;5.15;100.00
8398;BME280;4236;54.504;9.588;2023-02-15T11:11:48;102601.09;;;5.16;100.00
8398;BME280;4236;54.504;9.588;2023-02-15T11:14:21;102592.88;;;5.08;100.00
8398;BME280;4236;54.504;9.588;2023-02-15T11:16:53;102591.06;;;5.09;100.00
8398;BME280;4236;54.504;9.588;2023-02-15T11:19:27;102584.44;;;5.03;100.00
8398;BME280;4236;54.504;9.588;2023-02-15T11:21:59;102579.66;;;5.08;100.00
8398;BME280;4236;54.504;9.588;2023-02-15T11:24:30;102581.25;;;5.11;100.00
8398;BME280;4236;54.504;9.588;2023-02-15T11:27:04;102579.31;;;5.24;100.00
8398;BME280;4236;54.504;9.588;2023-02-15T11:29:36;102576.34;;;5.28;100.00
8398;BME280;4236;54.504;9.588;2023-02-15T11:32:18;102568.66;;;5.36;100.00
8398;BME280;4236;54.504;9.588;2023-02-15T11:34:52;102558.81;;;5.49;100.00
8398;BME280;4236;54.504;9.588;2023-02-15T11:37:24;102546.44;;;5.61;100.00
8398;BME280;4236;54.504;9.588;2023-02-15T11:39:55;102541.34;;;5.69;100.00
8398;BME280;4236;54.504;9.588;2023-02-15T11:42:24;102535.59;;;5.75;100.00
8398;BME280;4236;54.504;9.588;2023-02-15T11:44:58;102540.88;;;5.75;100.00
8398;BME280;4236;54.504;9.588;2023-02-15T11:47:27;102531.47;;;5.71;100.00
8398;BME280;4236;54.504;9.588;2023-02-15T11:49:57;102533.66;;;5.66;100.00
8398;BME280;4236;54.504;9.588;2023-02-15T11:52:25;102528.47;;;5.65;100.00
8398;BME280;4236;54.504;9.588;2023-02-15T11:54:53;102524.63;;;5.69;100.00
8398;BME280;4236;54.504;9.588;2023-02-15T11:57:25;102529.09;;;5.79;100.00
8398;BME280;4236;54.504;9.588;2023-02-15T11:59:58;102522.34;;;5.86;100.00
8398;BME280;4236;54.504;9.588;2023-02-15T12:02:31;102518.97;;;5.84;100.00
8398;BME280;4236;54.504;9.588;2023-02-15T12:05:06;102512.13;;;5.93;100.00
8398;BME280;4236;54.504;9.588;2023-02-15T12:07:40;102521.75;;;5.94;100.00
8398;BME280;4236;54.504;9.588;2023-02-15T12:10:17;102515.47;;;5.95;100.00
8398;BME280;4236;54.504;9.588;2023-02-15T12:12:46;102498.53;;;5.86;100.00
8398;BME280;4236;54.504;9.588;2023-02-15T12:15:14;102505.13;;;5.92;100.00
8398;BME280;4236;54.504;9.588;2023-02-15T12:17:49;102507.53;;;5.95;100.00
8398;BME280;4236;54.504;9.588;2023-02-15T12:20:28;102492.88;;;5.91;100.00
8398;BME280;4236;54.504;9.588;2023-02-15T12:22:59;102482.41;;;5.89;100.00
8398;BME280;4236;54.504;9.588;2023-02-15T12:25:33;102487.53;;;6.02;100.00
8398;BME280;4236;54.504;9.588;2023-02-15T12:28:03;102485.50;;;5.94;100.00
8398;BME280;4236;54.504;9.588;2023-02-15T12:30:34;102487.94;;;5.86;100.00
8398;BME280;4236;54.504;9.588;2023-02-15T12:33:08;102479.72;;;6.00;100.00
8398;BME280;4236;54.504;9.588;2023-02-15T12:35:43;102481.16;;;6.04;100.00
8398;BME280;4236;54.504;9.588;2023-02-15T12:38:23;102475.50;;;5.98;100.00
8398;BME280;4236;54.504;9.588;2023-02-15T12:40:58;102481.41;;;6.01;100.00
8398;BME280;4236;54.504;9.588;2023-02-15T12:43:27;102487.03;;;6.08;100.00
8398;BME280;4236;54.504;9.588;2023-02-15T12:46:13;102478.84;;;6.11;100.00
8398;BME280;4236;54.504;9.588;2023-02-15T12:48:42;102482.94;;;6.15;100.00
8398;BME280;4236;54.504;9.588;2023-02-15T12:51:15;102480.66;;;6.10;100.00
8398;BME280;4236;54.504;9.588;2023-02-15T12:53:43;102484.50;;;6.06;100.00
8398;BME280;4236;54.504;9.588;2023-02-15T12:56:10;102477.06;;;6.11;100.00
8398;BME280;4236;54.504;9.588;2023-02-15T12:58:39;102478.25;;;6.07;100.00
8398;BME280;4236;54.504;9.588;2023-02-15T13:01:12;102475.59;;;6.07;100.00
8398;BME280;4236;54.504;9.588;2023-02-15T13:03:55;102479.31;;;6.16;100.00
8398;BME280;4236;54.504;9.588;2023-02-15T13:06:25;102468.84;;;6.15;100.00
8398;BME280;4236;54.504;9.588;2023-02-15T13:08:56;102466.47;;;6.11;100.00
8398;BME280;4236;54.504;9.588;2023-02-15T13:11:26;102466.91;;;6.17;100.00
8398;BME280;4236;54.504;9.588;2023-02-15T13:13:58;102463.06;;;6.21;100.00
8398;BME280;4236;54.504;9.588;2023-02-15T13:16:30;102458.34;;;6.24;100.00
8398;BME280;4236;54.504;9.588;2023-02-15T13:19:05;102460.34;;;6.32;100.00
8398;BME280;4236;54.504;9.588;2023-02-15T13:21:38;102457.44;;;6.35;100.00
8398;BME280;4236;54.504;9.588;2023-02-15T13:24:15;102466.09;;;6.37;100.00
8398;BME280;4236;54.504;9.588;2023-02-15T13:26:45;102456.75;;;6.33;100.00
8398;BME280;4236;54.504;9.588;2023-02-15T13:29:18;102456.34;;;6.37;100.00
8398;BME280;4236;54.504;9.588;2023-02-15T13:31:49;102451.38;;;6.44;100.00
8398;BME280;4236;54.504;9.588;2023-02-15T13:34:22;102444.38;;;6.43;100.00
8398;BME280;4236;54.504;9.588;2023-02-15T13:36:57;102443.44;;;6.44;100.00